Time;durP1;ratioP1;P1;durP2;ratioP2;P2;SDS_P1;SDS_P2;PMS_P1;PMS_P2;Temp;Humidity;BMP_temperature;BMP_pressure;BME280_temperature;BME280_humidity;BME280_pressure;Samples;Min_cycle;Max_cycle;Signal;HPM_P1;HPM_P2
2022/07/28 00:00:34;;;;;;;6.07;2.05;;;;;;;16.90;56.76;101873.03;4974854;28;20034;-86
2022/07/28 00:03:00;;;;;;;4.70;2.10;;;;;;;16.88;56.11;101861.47;4974869;28;20037;-86
2022/07/28 00:05:25;;;;;;;4.20;2.00;;;;;;;16.87;56.10;101852.53;4973957;28;20089;-86
2022/07/28 00:07:51;;;;;;;5.82;2.10;;;;;;;16.85;57.17;101874.81;4973482;28;20460;-86
2022/07/28 00:10:16;;;;;;;5.47;2.13;;;;;;;16.81;56.56;101873.91;4974934;28;20459;-85
2022/07/28 00:12:42;;;;;;;7.10;2.20;;;;;;;16.80;56.40;101877.47;4973620;28;20027;-85
2022/07/28 00:15:08;;;;;;;5.10;2.00;;;;;;;16.55;56.40;101841.81;4974681;28;20030;-86
2022/07/28 00:17:33;;;;;;;6.57;2.13;;;;;;;16.78;56.28;101876.56;4974649;28;20475;-86
2022/07/28 00:19:59;;;;;;;5.13;2.13;;;;;;;16.69;56.77;101861.38;4974488;28;20030;-88
2022/07/28 00:22:24;;;;;;;5.28;2.03;;;;;;;16.73;57.16;101876.56;4974923;28;20034;-84
2022/07/28 00:24:51;;;;;;;6.85;2.13;;;;;;;16.71;57.16;101864.09;4974534;28;20058;-85
2022/07/28 00:27:17;;;;;;;5.78;2.30;;;;;;;16.58;56.82;101875.63;4973637;28;20034;-85
2022/07/28 00:29:43;;;;;;;9.77;2.28;;;;;;;16.40;56.96;101860.44;4974472;28;20038;-85
2022/07/28 00:32:08;;;;;;;9.82;2.40;;;;;;;16.41;57.07;101859.56;4973575;28;20035;-85
2022/07/28 00:34:33;;;;;;;5.13;2.25;;;;;;;16.43;58.27;101857.78;4973551;28;20109;-85
2022/07/28 00:36:59;;;;;;;6.15;2.10;;;;;;;16.38;57.17;101873.78;4973363;28;20090;-85
2022/07/28 00:39:24;;;;;;;4.68;2.00;;;;;;;16.27;58.05;101846.16;4957292;28;20348;-85
2022/07/28 00:41:49;;;;;;;6.90;2.22;;;;;;;16.23;57.49;101839.94;4974577;28;20031;-85
2022/07/28 00:44:15;;;;;;;6.35;2.13;;;;;;;16.39;57.31;101864.88;4973505;28;20030;-85
2022/07/28 00:46:41;;;;;;;8.73;2.20;;;;;;;16.46;57.37;101869.34;4974500;28;20049;-85
2022/07/28 00:49:06;;;;;;;6.47;2.10;;;;;;;16.37;57.19;101861.31;4974727;28;20128;-85
2022/07/28 00:51:32;;;;;;;4.20;1.98;;;;;;;16.31;57.94;101858.63;4974312;28;20370;-87
2022/07/28 00:53:57;;;;;;;5.97;2.13;;;;;;;16.26;58.07;101865.72;4976023;28;20475;-85
2022/07/28 00:56:23;;;;;;;7.82;2.30;;;;;;;16.24;58.03;101854.19;4978447;28;20027;-85
2022/07/28 00:58:49;;;;;;;3.72;1.83;;;;;;;16.24;58.12;101855.06;4978198;28;20472;-85
2022/07/28 01:01:18;;;;;;;8.32;2.20;;;;;;;16.13;57.94;101837.22;4976880;28;20387;-85
2022/07/28 01:03:48;;;;;;;4.07;2.05;;;;;;;16.24;58.10;101851.50;4977900;28;20498;-85
2022/07/28 01:06:19;;;;;;;5.38;2.15;;;;;;;16.21;58.02;101847.03;4978237;28;20070;-85
2022/07/28 01:08:59;;;;;;;5.03;1.90;;;;;;;16.22;57.81;101843.47;4978168;28;20030;-85
2022/07/28 01:11:31;;;;;;;4.90;2.00;;;;;;;16.28;57.90;101851.53;4978070;28;20019;-85
2022/07/28 01:13:56;;;;;;;5.43;2.13;;;;;;;16.30;58.57;101853.28;4978046;28;20451;-85
2022/07/28 01:16:21;;;;;;;5.82;2.28;;;;;;;16.19;57.32;101834.59;4977684;28;20084;-85
2022/07/28 01:19:09;;;;;;;5.30;2.20;;;;;;;16.21;57.58;101844.38;4976706;28;20031;-85
2022/07/28 01:21:36;;;;;;;6.85;2.00;;;;;;;16.31;57.24;101852.41;4977377;28;20034;-86
2022/07/28 01:24:04;;;;;;;4.22;2.17;;;;;;;16.25;57.60;101854.16;4977762;28;20035;-85
2022/07/28 01:26:47;;;;;;;7.43;2.17;;;;;;;16.30;57.35;101847.97;4977964;28;20443;-86
2022/07/28 01:29:21;;;;;;;8.82;2.40;;;;;;;16.24;57.50;101851.50;4977574;28;20490;-86
2022/07/28 01:31:55;;;;;;;7.05;2.28;;;;;;;16.10;57.86;101846.13;4976703;28;20114;-86
2022/07/28 01:34:28;;;;;;;5.90;1.98;;;;;;;16.14;58.04;101845.22;4977581;28;20047;-86
2022/07/28 01:36:58;;;;;;;4.53;2.00;;;;;;;16.05;58.16;101836.31;4976305;28;20027;-86
2022/07/28 01:39:28;;;;;;;4.55;2.42;;;;;;;16.05;57.99;101829.19;4977208;28;20042;-86
2022/07/28 01:41:57;;;;;;;7.15;2.20;;;;;;;16.03;58.20;101846.97;4977894;28;20030;-86
2022/07/28 01:44:25;;;;;;;5.85;2.35;;;;;;;16.00;58.09;101838.97;4976538;28;20470;-86
2022/07/28 01:46:52;;;;;;;4.70;2.20;;;;;;;15.84;58.16;101819.31;4977414;28;20026;-86
2022/07/28 01:49:20;;;;;;;5.18;2.20;;;;;;;15.92;58.52;101833.59;4975898;28;20167;-86
2022/07/28 01:51:46;;;;;;;5.10;2.25;;;;;;;15.86;58.37;101832.69;4977223;28;20034;-86
2022/07/28 01:54:14;;;;;;;4.70;2.20;;;;;;;15.75;59.19;101816.63;4977211;28;20518;-86
2022/07/28 01:56:41;;;;;;;6.38;2.20;;;;;;;15.76;59.13;101823.75;4977148;28;20027;-87
2022/07/28 01:59:10;;;;;;;4.88;2.13;;;;;;;15.69;58.81;101819.28;4977324;28;20113;-86
2022/07/28 02:01:41;;;;;;;7.38;2.53;;;;;;;15.72;58.73;101822.84;4977243;28;20046;-89
2022/07/28 02:04:09;;;;;;;6.90;2.25;;;;;;;15.71;59.49;101829.03;4977324;28;20027;-86
2022/07/28 02:06:35;;;;;;;6.93;2.40;;;;;;;15.72;59.00;101822.84;4976748;28;20110;-86
2022/07/28 02:09:04;;;;;;;4.72;2.17;;;;;;;15.75;59.88;101821.94;4977922;28;20030;-87
2022/07/28 02:11:39;;;;;;;7.75;2.47;;;;;;;15.70;58.80;101815.72;4978372;28;20031;-87
2022/07/28 02:14:13;;;;;;;7.28;2.40;;;;;;;15.77;58.64;101820.19;4977366;28;20033;-87
2022/07/28 02:16:43;;;;;;;5.45;2.45;;;;;;;15.75;58.22;101812.19;4977820;28;20064;-87
2022/07/28 02:19:10;;;;;;;4.82;2.10;;;;;;;15.67;59.17;101808.63;4977826;28;20488;-87
2022/07/28 02:21:37;;;;;;;5.72;2.40;;;;;;;15.64;58.63;101807.66;4978556;28;20022;-87
2022/07/28 02:24:05;;;;;;;4.35;2.25;;;;;;;15.53;59.16;101813.81;4977754;28;20035;-87
2022/07/28 02:26:35;;;;;;;6.63;2.40;;;;;;;15.53;58.81;101813.81;4977342;28;20030;-87
2022/07/28 02:29:05;;;;;;;5.18;2.58;;;;;;;15.51;58.96;101822.69;4977408;28;20356;-87
2022/07/28 02:31:40;;;;;;;6.18;2.42;;;;;;;15.48;58.80;101809.34;4976564;28;20023;-86
2022/07/28 02:34:09;;;;;;;6.28;2.30;;;;;;;15.44;58.95;101812.88;4976768;28;20054;-88
2022/07/28 02:36:39;;;;;;;5.70;2.40;;;;;;;15.42;59.09;101810.22;4976870;28;20034;-86
2022/07/28 02:39:10;;;;;;;6.55;2.53;;;;;;;15.38;59.38;101812.84;4976730;28;20446;-86
2022/07/28 02:41:40;;;;;;;5.03;2.30;;;;;;;15.34;59.40;101813.72;4976115;28;20027;-86
2022/07/28 02:44:11;;;;;;;4.82;2.17;;;;;;;15.25;58.99;101810.09;4978120;28;20030;-87
2022/07/28 02:46:42;;;;;;;5.38;2.22;;;;;;;15.32;59.05;101823.44;4977599;28;20355;-87
2022/07/28 02:49:17;;;;;;;6.45;2.58;;;;;;;15.35;58.73;101816.38;4977155;28;20463;-86
2022/07/28 02:51:45;;;;;;;4.32;2.20;;;;;;;15.30;58.66;101812.78;4977233;28;20026;-86
2022/07/28 02:54:12;;;;;;;4.70;2.30;;;;;;;15.32;58.77;101821.66;4976961;28;20079;-86
2022/07/28 02:56:40;;;;;;;7.10;2.40;;;;;;;15.18;58.97;101810.94;4977421;28;20027;-87
2022/07/28 02:59:06;;;;;;;5.70;2.30;;;;;;;15.12;59.34;101813.56;4977003;28;20482;-86
2022/07/28 03:01:32;;;;;;;6.28;2.30;;;;;;;15.06;59.18;101810.81;4975525;28;20411;-87
2022/07/28 03:03:58;;;;;;;4.85;2.40;;;;;;;15.12;59.17;101812.66;4975615;28;20030;-87
2022/07/28 03:06:24;;;;;;;9.50;2.58;;;;;;;15.05;59.54;101803.72;4976762;28;20030;-87
2022/07/28 03:08:50;;;;;;;6.63;2.40;;;;;;;14.98;59.52;101815.19;4976839;28;20026;-87
2022/07/28 03:11:15;;;;;;;4.80;2.40;;;;;;;14.96;60.17;101812.53;4976859;28;20499;-86
2022/07/28 03:13:41;;;;;;;5.30;2.40;;;;;;;14.91;60.00;101810.72;4976371;28;20046;-86
2022/07/28 03:16:07;;;;;;;8.88;2.40;;;;;;;14.90;59.73;101811.56;4975451;28;20038;-87
2022/07/28 03:18:32;;;;;;;6.53;2.22;;;;;;;14.89;60.28;101818.66;4975323;28;20513;-86
2022/07/28 03:20:58;;;;;;;4.53;2.30;;;;;;;14.86;59.97;101808.03;4976362;28;20038;-86
2022/07/28 03:23:31;;;;;;;3.60;2.28;;;;;;;14.84;59.91;101812.44;4976154;28;20481;-86
2022/07/28 03:26:04;;;;;;;4.25;2.08;;;;;;;14.85;59.74;101808.88;4976326;28;20023;-86
2022/07/28 03:28:30;;;;;;;5.85;2.13;;;;;;;14.74;60.50;101819.44;4976120;28;20418;-87
2022/07/28 03:31:01;;;;;;;4.50;2.40;;;;;;;14.66;60.97;101818.47;4976427;28;20031;-88
2022/07/28 03:33:27;;;;;;;6.82;2.40;;;;;;;14.61;60.74;101820.22;4977173;28;20029;-88
2022/07/28 03:35:55;;;;;;;3.88;2.60;;;;;;;14.57;61.18;101814.84;4975643;28;20027;-88
2022/07/28 03:38:40;;;;;;;4.13;2.20;;;;;;;14.52;60.89;101814.81;4977224;28;20050;-87
2022/07/28 03:41:08;;;;;;;5.85;2.70;;;;;;;14.53;61.42;101824.56;4976325;28;20483;-87
2022/07/28 03:43:34;;;;;;;3.90;2.20;;;;;;;14.48;61.06;101820.94;4974998;28;20340;-87
2022/07/28 03:45:59;;;;;;;4.80;2.20;;;;;;;14.48;61.52;101823.59;4976033;28;20033;-87
2022/07/28 03:48:29;;;;;;;4.35;2.35;;;;;;;14.47;61.49;101821.78;4975883;28;20467;-87
2022/07/28 03:50:55;;;;;;;6.43;2.42;;;;;;;14.43;61.94;101831.53;4975598;28;20455;-88
2022/07/28 03:53:24;;;;;;;5.28;2.50;;;;;;;14.39;61.51;101826.13;4976525;28;20086;-88
2022/07/28 03:55:50;;;;;;;7.22;2.65;;;;;;;14.31;62.05;101827.84;4976223;28;20563;-87
2022/07/28 03:58:20;;;;;;;5.85;2.30;;;;;;;14.17;62.07;101825.88;4975650;28;20048;-87
2022/07/28 04:00:48;;;;;;;5.32;2.40;;;;;;;14.23;62.25;101822.44;4975128;28;20026;-87
2022/07/28 04:03:13;;;;;;;6.85;2.58;;;;;;;14.23;62.05;101820.66;4975740;28;20114;-87
2022/07/28 04:05:39;;;;;;;6.25;2.50;;;;;;;14.19;62.36;101825.91;4975797;28;20117;-87
2022/07/28 04:08:04;;;;;;;6.55;2.70;;;;;;;14.18;62.93;101817.06;4976253;28;20374;-88
2022/07/28 04:10:30;;;;;;;7.18;2.60;;;;;;;14.18;62.45;101814.41;4975998;28;20076;-88
2022/07/28 04:12:57;;;;;;;5.22;2.50;;;;;;;14.15;63.17;101813.47;4975856;28;20089;-89
2022/07/28 04:15:25;;;;;;;5.68;2.60;;;;;;;14.09;62.80;101816.03;4975901;28;20037;-89
2022/07/28 04:17:52;;;;;;;5.50;2.50;;;;;;;14.13;62.53;101815.19;4976316;28;20081;-88
2022/07/28 04:20:19;;;;;;;7.63;2.58;;;;;;;14.14;62.98;101814.34;4974688;28;20027;-87
2022/07/28 04:22:46;;;;;;;8.98;2.60;;;;;;;14.03;63.01;101814.22;4976020;28;20110;-87
2022/07/28 04:25:13;;;;;;;7.45;2.50;;;;;;;14.11;63.07;101820.50;4975546;28;20031;-87
2022/07/28 04:27:39;;;;;;;8.57;3.30;;;;;;;14.06;63.46;101818.69;4975220;28;20522;-87
2022/07/28 04:30:07;;;;;;;7.05;2.63;;;;;;;14.15;63.54;101818.78;4975266;28;20027;-87
2022/07/28 04:32:33;;;;;;;7.63;2.67;;;;;;;14.09;63.33;101814.28;4976130;28;20030;-87
2022/07/28 04:34:59;;;;;;;9.15;2.30;;;;;;;14.14;63.88;101817.00;4975313;28;20030;-88
2022/07/28 04:37:26;;;;;;;7.43;2.50;;;;;;;14.12;63.19;101816.97;4975808;28;20030;-88
2022/07/28 04:39:51;;;;;;;7.28;2.80;;;;;;;14.14;63.53;101804.59;4976985;28;20121;-87
2022/07/28 04:42:19;;;;;;;5.75;2.58;;;;;;;14.18;63.20;101816.16;4976720;28;20463;-88
2022/07/28 04:44:45;;;;;;;8.30;3.00;;;;;;;14.26;63.44;101818.03;4977187;28;20034;-88
2022/07/28 04:47:14;;;;;;;6.32;2.60;;;;;;;14.25;63.22;101810.91;4977059;28;20040;-87
2022/07/28 04:49:40;;;;;;;6.60;2.70;;;;;;;14.32;63.61;101818.97;4977100;28;20031;-87
2022/07/28 04:52:07;;;;;;;8.60;3.22;;;;;;;14.39;63.06;101819.06;4976031;28;20033;-87
2022/07/28 04:54:33;;;;;;;5.55;2.67;;;;;;;14.44;62.83;101811.13;4975442;28;20027;-87
2022/07/28 04:56:58;;;;;;;8.68;2.53;;;;;;;14.43;63.07;101812.91;4975992;28;20085;-88
2022/07/28 04:59:24;;;;;;;7.70;2.55;;;;;;;14.43;63.06;101806.66;4974845;28;20061;-87
2022/07/28 05:01:49;;;;;;;7.90;2.63;;;;;;;14.50;63.30;101812.09;4976478;28;20113;-90
2022/07/28 05:04:15;;;;;;;7.28;2.67;;;;;;;14.47;63.23;101812.06;4975341;28;20474;-87
2022/07/28 05:06:40;;;;;;;10.35;2.60;;;;;;;14.51;62.92;101819.19;4974665;28;20035;-85
2022/07/28 05:09:05;;;;;;;10.00;2.70;;;;;;;14.55;63.15;101819.25;4976314;28;20027;-86
2022/07/28 05:11:31;;;;;;;5.22;2.38;;;;;;;14.59;63.55;101821.06;4977000;28;20574;-88
2022/07/28 05:13:56;;;;;;;9.02;2.60;;;;;;;14.61;63.07;101817.53;4976262;28;20467;-88
2022/07/28 05:16:21;;;;;;;5.55;2.50;;;;;;;14.63;63.41;101815.78;4975461;28;20033;-87
2022/07/28 05:18:47;;;;;;;4.68;2.55;;;;;;;14.67;63.10;101822.03;4973936;28;20027;-88
2022/07/28 05:21:12;;;;;;;6.32;2.80;;;;;;;14.67;63.16;101812.28;4974859;28;20070;-87
2022/07/28 05:23:37;;;;;;;5.70;2.60;;;;;;;14.75;63.04;101817.66;4973905;28;20057;-88
2022/07/28 05:26:06;;;;;;;6.43;2.50;;;;;;;14.83;62.79;101813.31;4975138;28;20034;-87
2022/07/28 05:28:32;;;;;;;5.45;2.60;;;;;;;14.92;62.54;101807.19;4975361;28;20031;-88
2022/07/28 05:30:58;;;;;;;7.40;2.63;;;;;;;15.02;62.82;101817.88;4974602;28;20053;-87
2022/07/28 05:33:23;;;;;;;5.68;2.47;;;;;;;15.11;62.07;101811.75;4975524;28;20463;-88
2022/07/28 05:35:56;;;;;;;11.07;2.75;;;;;;;15.32;61.60;101812.78;4975232;28;20371;-87
2022/07/28 05:38:23;;;;;;;7.65;2.80;;;;;;;15.63;61.26;101821.84;4974702;28;20026;-88
2022/07/28 05:40:49;;;;;;;8.35;2.47;;;;;;;15.80;61.01;101813.97;4977686;28;20113;-87
2022/07/28 05:43:15;;;;;;;5.85;2.78;;;;;;;15.92;59.42;101812.25;4978383;28;20057;-87
2022/07/28 05:45:40;;;;;;;7.00;2.80;;;;;;;16.05;59.19;101812.31;4978780;28;20038;-87
2022/07/28 05:48:06;;;;;;;8.73;2.90;;;;;;;16.22;58.50;101818.59;4976798;28;20054;-87
2022/07/28 05:50:32;;;;;;;5.85;2.78;;;;;;;16.30;58.25;101821.28;4977949;28;20046;-88
2022/07/28 05:52:58;;;;;;;9.38;2.80;;;;;;;16.24;58.59;101819.50;4978508;28;20419;-88
2022/07/28 05:55:24;;;;;;;7.30;2.88;;;;;;;16.17;58.91;101815.91;4977662;28;20034;-88
2022/07/28 05:57:49;;;;;;;10.98;3.00;;;;;;;16.17;58.98;101823.91;4978934;28;20030;-88
2022/07/28 06:00:20;;;;;;;5.43;2.65;;;;;;;16.24;58.59;101825.72;4977991;28;20370;-88
2022/07/28 06:02:47;;;;;;;7.90;2.83;;;;;;;16.21;58.10;101819.50;4978547;28;20058;-88
2022/07/28 06:05:15;;;;;;;6.65;2.70;;;;;;;16.20;58.64;101823.94;4977577;28;20037;-88
2022/07/28 06:07:41;;;;;;;4.97;2.78;;;;;;;16.27;58.64;101822.16;4978006;28;20050;-87
2022/07/28 06:10:07;;;;;;;7.07;2.80;;;;;;;16.30;57.80;101827.50;4976980;28;20372;-88
2022/07/28 06:12:42;;;;;;;9.55;2.70;;;;;;;16.37;58.13;101820.44;4976724;28;20031;-89
2022/07/28 06:15:14;;;;;;;8.40;2.70;;;;;;;16.38;57.77;101828.44;4978070;28;20034;-89
2022/07/28 06:17:40;;;;;;;7.78;3.15;;;;;;;16.36;57.72;101822.22;4977968;28;20034;-89
2022/07/28 06:20:07;;;;;;;7.45;2.65;;;;;;;16.46;57.56;101823.13;4976674;28;20061;-89
2022/07/28 06:22:43;;;;;;;8.70;2.92;;;;;;;16.50;57.85;101822.22;4977589;28;20468;-89
2022/07/28 06:25:17;;;;;;;7.40;2.63;;;;;;;16.47;57.51;101817.78;4977800;28;20463;-89
2022/07/28 06:27:46;;;;;;;8.68;2.63;;;;;;;16.46;57.56;101815.09;4977302;28;20425;-89
2022/07/28 06:30:12;;;;;;;10.38;2.85;;;;;;;16.55;57.37;101817.78;4977468;28;20031;-88
2022/07/28 06:32:37;;;;;;;5.35;2.70;;;;;;;16.53;57.50;101808.91;4978632;28;20049;-89
2022/07/28 06:35:04;;;;;;;7.03;2.70;;;;;;;16.60;57.09;101816.00;4977534;28;20031;-89
2022/07/28 06:37:29;;;;;;;8.70;2.78;;;;;;;16.66;57.04;101815.13;4977994;28;20487;-88
2022/07/28 06:39:55;;;;;;;6.82;3.00;;;;;;;16.74;57.07;101822.31;4977228;28;20033;-88
2022/07/28 06:42:20;;;;;;;8.48;2.78;;;;;;;16.78;56.22;101815.16;4979393;28;20506;-90
2022/07/28 06:44:45;;;;;;;6.85;3.17;;;;;;;16.92;56.56;101817.88;4981900;28;20054;-91
2022/07/28 06:47:11;;;;;;;10.48;2.90;;;;;;;16.95;56.33;101812.50;4979856;28;20479;-89
2022/07/28 06:49:36;;;;;;;5.20;2.55;;;;;;;17.06;56.07;101820.53;4978508;28;20126;-89
2022/07/28 06:52:02;;;;;;;6.97;2.80;;;;;;;17.26;55.72;101824.09;4977973;28;20027;-88
2022/07/28 06:54:27;;;;;;;8.00;2.55;;;;;;;17.50;54.71;101818.69;4978335;28;20023;-89
2022/07/28 06:56:52;;;;;;;6.53;2.80;;;;;;;17.69;54.09;101811.50;4977803;28;20027;-90
2022/07/28 06:59:18;;;;;;;10.93;2.80;;;;;;;17.85;52.94;101811.47;4977509;28;20161;-90
2022/07/28 07:01:44;;;;;;;9.32;2.80;;;;;;;18.13;52.78;101823.84;4977622;28;20031;-89
2022/07/28 07:04:09;;;;;;;9.68;2.88;;;;;;;18.16;52.27;101826.53;4978197;28;20462;-89
2022/07/28 07:06:34;;;;;;;6.63;2.50;;;;;;;18.35;51.24;101821.06;4977200;28;20455;-91
2022/07/28 07:09:00;;;;;;;4.78;2.22;;;;;;;18.55;50.34;101831.66;4976365;28;20378;-91
2022/07/28 07:11:26;;;;;;;7.20;2.50;;;;;;;18.62;50.89;101822.66;4977273;28;20046;-92
2022/07/28 07:13:51;;;;;;;5.35;2.45;;;;;;;18.75;49.66;101827.94;4977235;28;20037;-92
2022/07/28 07:16:17;;;;;;;7.22;2.58;;;;;;;18.95;49.42;101825.13;4978183;28;20085;-90
2022/07/28 07:18:43;;;;;;;8.02;2.50;;;;;;;19.09;49.65;101822.31;4976715;28;20122;-89
2022/07/28 07:21:08;;;;;;;6.82;2.55;;;;;;;19.42;48.89;101820.22;4976364;28;20039;-88
2022/07/28 07:23:34;;;;;;;13.00;2.65;;;;;;;19.50;47.92;101821.94;4976202;28;20053;-88
2022/07/28 07:26:00;;;;;;;6.05;2.40;;;;;;;19.44;47.90;101816.66;4958948;28;20125;-89
2022/07/28 07:28:25;;;;;;;7.65;2.20;;;;;;;19.46;47.93;101814.81;4991190;28;20038;-90
2022/07/28 07:30:51;;;;;;;5.85;2.42;;;;;;;19.54;48.15;101809.38;4976416;28;20034;-92
2022/07/28 07:33:16;;;;;;;6.80;2.47;;;;;;;19.60;47.88;101824.50;4977104;28;20027;-91
2022/07/28 07:35:42;;;;;;;8.63;2.60;;;;;;;19.68;47.80;101822.66;4959911;28;20345;-92
2022/07/28 07:38:08;;;;;;;7.38;2.30;;;;;;;19.84;47.76;101809.97;4976401;28;20481;-92
2022/07/28 07:40:33;;;;;;;6.72;2.30;;;;;;;20.23;46.67;101820.19;4979255;28;20023;-96
2022/07/28 07:42:59;;;;;;;11.00;2.83;;;;;;;20.55;45.63;101816.16;4977798;28;20023;-95
2022/07/28 07:45:25;;;;;;;5.68;2.30;;;;;;;20.63;45.76;101808.00;4978648;28;20022;-96
2022/07/28 07:47:50;;;;;;;5.43;2.22;;;;;;;20.57;45.47;101809.00;4978738;28;20043;-95
2022/07/28 07:50:15;;;;;;;7.38;2.47;;;;;;;20.46;45.51;101802.84;4978599;28;20064;-95
2022/07/28 07:52:41;;;;;;;7.35;2.38;;;;;;;20.34;45.02;101803.94;4979086;28;20126;-95
2022/07/28 07:55:07;;;;;;;7.95;2.40;;;;;;;20.17;45.30;101798.81;4979646;28;20022;-94
2022/07/28 07:57:32;;;;;;;6.80;2.20;;;;;;;20.19;46.04;101796.97;4976420;28;20038;-94
2022/07/28 07:59:58;;;;;;;7.20;2.38;;;;;;;20.49;45.32;101794.78;4978562;28;20030;-96
2022/07/28 08:02:23;;;;;;;6.80;2.10;;;;;;;20.80;44.51;101805.03;4978847;28;20034;-95
2022/07/28 08:04:49;;;;;;;6.38;2.10;;;;;;;20.83;44.46;101802.31;4979243;28;20027;-95
2022/07/28 08:07:14;;;;;;;4.75;1.90;;;;;;;20.92;43.62;101811.09;4977977;28;20371;-96
2022/07/28 08:09:39;;;;;;;6.13;2.45;;;;;;;21.14;44.11;101800.88;4977202;28;20029;-96
2022/07/28 08:12:05;;;;;;;8.40;2.10;;;;;;;21.22;42.75;101798.94;4976730;28;20402;-96
2022/07/28 08:14:31;;;;;;;6.72;2.00;;;;;;;21.40;42.86;101802.22;4979925;28;20031;-96
2022/07/28 08:16:58;;;;;;;5.78;2.10;;;;;;;21.49;43.18;101793.97;4976889;28;20118;-95
2022/07/28 08:19:23;;;;;;;3.97;2.03;;;;;;;21.65;42.50;101789.19;4959639;28;20126;-95
2022/07/28 08:21:48;;;;;;;5.35;2.20;;;;;;;21.90;42.32;101806.59;4976530;28;20086;-95
2022/07/28 08:24:14;;;;;;;6.47;2.20;;;;;;;22.08;41.36;101799.06;4974995;28;20493;-96
2022/07/28 08:26:39;;;;;;;8.05;2.40;;;;;;;22.09;40.76;101800.81;4975658;28;20039;-96
2022/07/28 08:29:05;;;;;;;6.47;2.30;;;;;;;22.15;40.65;101800.75;4976531;28;20027;-96
2022/07/28 08:31:30;;;;;;;5.45;2.05;;;;;;;22.20;40.31;101786.25;4976595;28;20407;-94
2022/07/28 08:33:57;;;;;;;6.70;2.00;;;;;;;22.34;40.54;101791.31;4975300;28;20023;-93
2022/07/28 08:36:22;;;;;;;6.78;2.40;;;;;;;22.56;39.89;101796.19;4975704;28;20058;-90
2022/07/28 08:38:48;;;;;;;6.28;1.95;;;;;;;22.87;39.59;101785.53;4974357;28;20067;-88
2022/07/28 08:41:35;;;;;;;6.30;2.20;;;;;;;23.01;39.10;101791.50;4975549;28;20027;-90
2022/07/28 08:44:05;;;;;;;10.25;2.20;;;;;;;23.30;39.13;101789.84;4975491;28;20023;-90
2022/07/28 08:46:35;;;;;;;5.07;1.95;;;;;;;23.47;38.43;101782.19;4974876;28;20058;-89
2022/07/28 08:49:05;;;;;;;9.73;2.38;;;;;;;23.82;38.24;101793.84;4974413;28;20108;-90
2022/07/28 08:51:31;;;;;;;5.15;1.95;;;;;;;24.02;36.86;101787.81;4975110;28;20447;-90
2022/07/28 08:53:58;;;;;;;6.65;2.25;;;;;;;24.06;36.76;101776.88;4975358;28;20081;-91
2022/07/28 08:56:25;;;;;;;10.57;2.40;;;;;;;23.98;37.23;101779.84;4957988;28;20019;-92
2022/07/28 08:58:54;;;;;;;6.72;2.20;;;;;;;24.22;37.26;101782.69;4974918;28;20030;-90
2022/07/28 09:01:21;;;;;;;7.78;2.13;;;;;;;24.23;36.88;101779.94;4973633;28;20023;-88
2022/07/28 09:03:49;;;;;;;10.70;2.28;;;;;;;24.42;36.81;101774.88;4975151;28;20031;-90
2022/07/28 09:06:14;;;;;;;6.25;2.20;;;;;;;24.86;35.84;101775.22;4975485;28;20030;-90
2022/07/28 09:08:41;;;;;;;7.80;2.22;;;;;;;24.99;35.08;101779.28;4975166;28;20031;-89
2022/07/28 09:11:07;;;;;;;7.82;2.10;;;;;;;25.04;35.29;101772.81;4975241;28;20038;-90
2022/07/28 09:13:33;;;;;;;13.75;2.30;;;;;;;25.03;34.92;101777.34;4975616;28;20031;-93
2022/07/28 09:15:59;;;;;;;7.38;2.25;;;;;;;25.11;34.86;101769.91;4977972;28;20459;-93
2022/07/28 09:18:24;;;;;;;7.50;2.30;;;;;;;25.39;34.73;101760.78;4977991;28;20118;-92
2022/07/28 09:20:50;;;;;;;8.90;2.13;;;;;;;25.62;35.88;101763.53;4978653;28;20065;-92
2022/07/28 09:23:24;;;;;;;7.28;2.30;;;;;;;25.59;33.42;101755.53;4979035;28;20022;-91
2022/07/28 09:25:50;;;;;;;8.13;2.45;;;;;;;25.55;34.03;101751.16;4978687;28;20078;-94
2022/07/28 09:28:17;;;;;;;5.90;2.08;;;;;;;25.61;33.92;101747.31;4979576;28;20031;-94
2022/07/28 09:30:45;;;;;;;8.88;2.00;;;;;;;25.78;33.41;101739.50;4979938;28;20035;-93
2022/07/28 09:33:26;;;;;;;5.90;2.20;;;;;;;25.82;34.31;101751.09;4979415;28;20027;-92
2022/07/28 09:35:55;;;;;;;9.38;2.20;;;;;;;25.87;34.69;101733.75;4978421;28;20102;-94
2022/07/28 09:38:22;;;;;;;7.32;2.40;;;;;;;26.00;33.18;101738.69;4978043;28;20415;-93
2022/07/28 09:41:03;;;;;;;10.40;2.88;;;;;;;26.20;33.71;101725.19;4979507;28;20074;-91
2022/07/28 09:43:41;;;;;;;5.65;2.28;;;;;;;26.39;33.29;101726.22;4978329;28;20042;-88
2022/07/28 09:46:12;;;;;;;8.32;2.50;;;;;;;26.41;32.11;101729.72;4978815;28;20081;-88
2022/07/28 09:48:58;;;;;;;9.27;2.30;;;;;;;26.78;31.73;101711.97;4978075;28;20082;-88
2022/07/28 09:51:32;;;;;;;6.28;2.10;;;;;;;26.55;32.41;101707.53;4978423;28;20035;-88
2022/07/28 09:54:10;;;;;;;6.68;2.10;;;;;;;26.61;31.23;101709.09;4978088;28;20062;-88
2022/07/28 09:56:38;;;;;;;10.15;2.17;;;;;;;26.46;31.81;101700.63;4978109;28;20375;-87
2022/07/28 09:59:03;;;;;;;5.70;2.10;;;;;;;26.32;31.01;101716.56;4978827;28;20442;-88
2022/07/28 10:01:29;;;;;;;6.45;2.20;;;;;;;26.03;31.54;101727.69;4978059;28;20114;-87
2022/07/28 10:03:56;;;;;;;4.50;1.90;;;;;;;26.16;31.15;101726.25;4977437;28;20344;-88
2022/07/28 10:06:30;;;;;;;5.82;2.00;;;;;;;26.31;31.29;101727.47;4976811;28;20058;-88
2022/07/28 10:09:00;;;;;;;5.65;2.20;;;;;;;26.32;31.80;101721.09;4978939;28;20035;-87
2022/07/28 10:11:28;;;;;;;11.32;2.30;;;;;;;26.34;30.79;101721.94;4977370;28;20514;-87
2022/07/28 10:14:04;;;;;;;5.43;2.08;;;;;;;26.47;31.51;101709.69;4979564;28;20080;-88
2022/07/28 10:16:32;;;;;;;6.75;1.95;;;;;;;26.87;30.52;101703.41;4978677;28;20054;-88
2022/07/28 10:18:59;;;;;;;5.47;2.10;;;;;;;27.04;29.92;101705.38;4978153;28;20023;-89
2022/07/28 10:21:26;;;;;;;7.47;2.42;;;;;;;26.92;29.89;101712.22;4976546;28;20343;-89
2022/07/28 10:23:57;;;;;;;5.70;1.95;;;;;;;26.89;30.97;101714.19;4977234;28;20030;-89
2022/07/28 10:26:37;;;;;;;5.40;2.00;;;;;;;27.26;30.24;101705.34;4976494;28;20458;-88
2022/07/28 10:29:07;;;;;;;4.18;1.63;;;;;;;27.46;29.51;101704.44;4977674;28;20374;-88
2022/07/28 10:31:40;;;;;;;5.95;2.05;;;;;;;27.34;28.56;101700.44;4977224;28;20030;-88
2022/07/28 10:34:09;;;;;;;5.78;2.20;;;;;;;27.38;28.99;101707.50;4977042;28;20110;-88
2022/07/28 10:36:35;;;;;;;4.50;2.00;;;;;;;27.17;28.78;101694.91;4977116;28;20039;-88
2022/07/28 10:39:08;;;;;;;3.65;2.00;;;;;;;27.34;29.31;101705.88;4976117;28;20363;-88
2022/07/28 10:41:39;;;;;;;5.65;2.03;;;;;;;27.40;28.71;101702.88;4976992;28;20023;-89
2022/07/28 10:44:05;;;;;;;12.35;2.00;;;;;;;27.83;29.13;101694.56;4977338;28;20037;-88
2022/07/28 10:46:31;;;;;;;8.35;2.13;;;;;;;27.75;28.27;101694.97;4975913;28;20114;-88
2022/07/28 10:48:57;;;;;;;4.10;1.90;;;;;;;27.77;28.59;101698.47;4977566;28;20490;-87
2022/07/28 10:51:23;;;;;;;4.22;1.90;;;;;;;27.94;27.89;101690.41;4977018;28;20031;-87
2022/07/28 10:54:04;;;;;;;5.28;1.80;;;;;;;28.27;28.11;101696.97;4976934;28;20027;-87
2022/07/28 10:56:45;;;;;;;7.30;2.00;;;;;;;28.49;27.97;101694.97;4976958;28;20023;-88
2022/07/28 10:59:19;;;;;;;5.95;2.05;;;;;;;28.47;27.53;101683.28;4977378;28;20160;-87
2022/07/28 11:01:45;;;;;;;6.68;2.10;;;;;;;28.81;27.17;101685.13;4975772;28;20034;-88
2022/07/28 11:04:46;;;;;;;5.93;2.30;;;;;;;28.84;27.31;101694.97;4976424;28;20030;-88
2022/07/28 11:07:14;;;;;;;6.17;2.00;;;;;;;28.55;27.67;101675.59;4976844;28;20046;-88
2022/07/28 11:09:40;;;;;;;7.03;1.95;;;;;;;28.68;27.35;101693.03;4977207;28;20258;-87
2022/07/28 11:12:06;;;;;;;4.68;2.00;;;;;;;28.80;26.43;101677.94;4976999;28;20083;-88
2022/07/28 11:14:34;;;;;;;5.45;1.73;;;;;;;28.97;26.93;101677.09;4975531;28;20120;-87
2022/07/28 11:17:05;;;;;;;7.28;2.00;;;;;;;29.19;26.99;101674.97;4976652;28;20054;-88
2022/07/28 11:19:43;;;;;;;6.05;2.30;;;;;;;29.04;26.57;101666.75;4976676;28;20455;-88
2022/07/28 11:22:17;;;;;;;6.05;1.95;;;;;;;29.08;27.18;101679.22;4976647;28;20054;-88
2022/07/28 11:24:55;;;;;;;4.25;1.90;;;;;;;28.89;27.15;101674.72;4977112;28;20507;-87
2022/07/28 11:27:59;;;;;;;3.28;2.00;;;;;;;29.03;27.71;101664.97;4977577;28;20030;-88